Portada
METAR-TAF:

METAR-TAF

Aeroports :

Nioro, Mali

latitud: 15-14N, longitud: 009-21W, altitud: 235 m

Observació

L'informe es va fer fa 47 minuts, a les 03:00 UTC
Vent 2 kt amb direcció variable
Temperatura 30°C
Humitat 29%
Pressió 1011 hPa
Visibilitat 10 km o més
sense núvols per sota de 1500 mi sense presència de cumulonimbus.

METAR: GANR 210300Z VRB02KT CAVOK 30/10 Q1011

Hora: 03:47 (03:47 UTC)


TAF: manca

Observacions i pronòstics meteorològics de més de 4000 aeroports (METAR i TAF).

Les estacions disponibles són els punts grocs i vermells al mapa.

Posi el ratolí al punt desitjat per veure el nom de l'estació.

Feu clic per veure les observacions i els pronòstics meteorològics.

Per canviar el mapa: feu clic els botons verds amb una creu de color negre per apropar; al botó verd amb un guió per allunyar la imatge; o en les fletxes verdes per a mapes adjacents.


METAR-TAF: